createdAt,value
2022-10-08T00:01:09.379Z,18.90
2022-10-08T00:04:35.542Z,19.00
2022-10-08T00:07:59.805Z,18.90
2022-10-08T00:11:27.816Z,19.00
2022-10-08T00:14:51.472Z,19.00
2022-10-08T00:18:14.967Z,19.00
2022-10-08T00:21:42.940Z,18.90
2022-10-08T00:25:08.264Z,18.90
2022-10-08T00:28:31.979Z,18.80
2022-10-08T00:31:55.504Z,18.80
2022-10-08T00:35:19.004Z,18.70
2022-10-08T00:38:43.898Z,18.60
2022-10-08T00:42:07.358Z,18.50
2022-10-08T00:45:31.969Z,18.40
2022-10-08T00:49:05.901Z,18.30
2022-10-08T00:52:36.001Z,18.20
2022-10-08T00:56:00.856Z,18.10
2022-10-08T00:59:26.271Z,18.00
2022-10-08T01:02:50.350Z,18.00
2022-10-08T01:06:28.279Z,17.90
2022-10-08T01:10:03.939Z,17.90
2022-10-08T01:13:42.831Z,17.80
2022-10-08T01:17:17.883Z,17.80
2022-10-08T01:20:59.915Z,17.70
2022-10-08T01:24:57.149Z,17.70
2022-10-08T01:28:31.942Z,17.60
2022-10-08T01:32:03.150Z,17.60
2022-10-08T01:35:34.240Z,17.60
2022-10-08T01:39:06.500Z,17.60
2022-10-08T01:42:34.860Z,17.60
2022-10-08T01:46:09.401Z,17.70
2022-10-08T01:49:42.149Z,17.60
2022-10-08T01:53:12.767Z,17.70
2022-10-08T01:56:41.191Z,17.60
2022-10-08T02:00:10.142Z,17.70
2022-10-08T02:03:37.725Z,17.70
2022-10-08T02:07:07.366Z,17.70
2022-10-08T02:10:31.522Z,17.70
2022-10-08T02:13:55.024Z,17.70
2022-10-08T02:17:29.872Z,17.70
2022-10-08T02:21:00.467Z,17.70
2022-10-08T02:24:34.483Z,17.70
2022-10-08T02:28:09.310Z,17.70
2022-10-08T02:31:40.981Z,17.70
2022-10-08T02:35:14.259Z,17.80
2022-10-08T02:38:46.118Z,17.70
2022-10-08T02:42:15.012Z,17.70
2022-10-08T02:45:46.482Z,17.60
2022-10-08T02:49:16.275Z,17.60
2022-10-08T02:52:45.457Z,17.60
2022-10-08T02:56:18.620Z,17.70
2022-10-08T02:59:43.277Z,17.70
2022-10-08T03:03:13.252Z,17.60
2022-10-08T03:06:37.856Z,17.60
2022-10-08T03:10:05.605Z,17.60
2022-10-08T03:13:34.582Z,17.60
2022-10-08T03:16:58.065Z,17.50
2022-10-08T03:20:23.224Z,17.50
2022-10-08T03:23:47.107Z,17.50
2022-10-08T03:27:10.507Z,17.50
2022-10-08T03:30:35.660Z,17.50
2022-10-08T03:33:59.471Z,17.50
2022-10-08T03:37:23.114Z,17.50
2022-10-08T03:40:56.651Z,17.50
2022-10-08T03:44:20.422Z,17.60
2022-10-08T03:47:45.297Z,17.60
2022-10-08T03:51:12.719Z,17.70
2022-10-08T03:54:36.585Z,17.70
2022-10-08T03:58:00.146Z,17.70
2022-10-08T04:01:25.108Z,17.70
2022-10-08T04:04:50.062Z,17.80
2022-10-08T04:08:13.466Z,17.80
2022-10-08T04:11:36.849Z,17.80
2022-10-08T04:15:00.242Z,17.80
2022-10-08T04:18:23.757Z,17.90
2022-10-08T04:21:48.521Z,17.90
2022-10-08T04:25:11.933Z,17.90
2022-10-08T04:28:38.761Z,17.90
2022-10-08T04:32:02.494Z,17.90
2022-10-08T04:35:26.368Z,17.90
2022-10-08T04:38:52.019Z,17.90
2022-10-08T04:42:15.475Z,17.90
2022-10-08T04:45:44.744Z,17.90
2022-10-08T04:49:08.209Z,18.00
2022-10-08T04:52:33.132Z,17.90
2022-10-08T04:55:58.948Z,18.00
2022-10-08T04:59:22.377Z,18.00
2022-10-08T05:02:46.864Z,18.10
2022-10-08T05:06:11.685Z,18.00
2022-10-08T05:09:35.182Z,18.00
2022-10-08T05:12:59.939Z,18.00
2022-10-08T05:16:24.736Z,18.10
2022-10-08T05:19:48.296Z,18.10
2022-10-08T05:23:12.076Z,18.00
2022-10-08T05:26:58.524Z,18.00
2022-10-08T05:30:23.124Z,18.00
2022-10-08T05:33:46.625Z,18.10
2022-10-08T05:37:10.063Z,18.00
2022-10-08T05:40:33.555Z,18.00
2022-10-08T05:43:58.784Z,18.00
2022-10-08T05:47:23.628Z,18.00
2022-10-08T05:50:47.039Z,17.90
2022-10-08T05:54:10.516Z,17.90
2022-10-08T05:57:34.212Z,17.80
2022-10-08T06:00:59.424Z,17.80
2022-10-08T06:04:24.282Z,17.90
2022-10-08T06:07:47.687Z,17.80
2022-10-08T06:11:11.452Z,17.70
2022-10-08T06:14:35.020Z,17.70
2022-10-08T06:17:58.481Z,17.80
2022-10-08T06:21:26.378Z,17.80
2022-10-08T06:24:49.777Z,17.70
2022-10-08T06:28:13.679Z,17.80
2022-10-08T06:31:37.602Z,17.70
2022-10-08T06:35:01.345Z,17.80
2022-10-08T06:38:26.147Z,17.80
2022-10-08T06:41:49.518Z,17.80
2022-10-08T06:45:12.877Z,17.80
2022-10-08T06:48:36.421Z,17.80
2022-10-08T06:51:59.850Z,17.80
2022-10-08T06:55:24.776Z,17.80
2022-10-08T06:58:49.256Z,17.90
2022-10-08T07:02:12.846Z,17.90
2022-10-08T07:05:36.371Z,17.90
2022-10-08T07:09:01.951Z,18.00
2022-10-08T07:12:26.852Z,18.00
2022-10-08T07:15:50.281Z,18.00
2022-10-08T07:19:13.777Z,18.30
2022-10-08T07:22:37.180Z,18.10
2022-10-08T07:26:03.628Z,18.10
2022-10-08T07:29:28.463Z,18.20
2022-10-08T07:32:53.814Z,18.30
2022-10-08T07:36:20.692Z,18.30
2022-10-08T07:39:44.194Z,18.40
2022-10-08T07:43:07.595Z,18.60
2022-10-08T07:46:34.485Z,18.70
2022-10-08T07:49:57.894Z,18.90
2022-10-08T07:53:21.640Z,19.00
2022-10-08T07:56:46.029Z,19.20
2022-10-08T08:00:11.141Z,19.30
2022-10-08T08:03:38.829Z,19.50
2022-10-08T08:07:02.216Z,19.70
2022-10-08T08:10:25.647Z,19.90
2022-10-08T08:13:49.715Z,19.90
2022-10-08T08:17:13.243Z,20.00
2022-10-08T08:20:38.010Z,20.00
2022-10-08T08:24:07.324Z,19.90
2022-10-08T08:27:30.863Z,19.80
2022-10-08T08:30:54.267Z,19.80
2022-10-08T08:34:21.131Z,19.80
2022-10-08T08:37:46.069Z,19.70
2022-10-08T08:41:34.889Z,19.70
2022-10-08T08:45:01.656Z,19.60
2022-10-08T08:48:32.989Z,19.50
2022-10-08T08:51:59.141Z,19.50
2022-10-08T08:55:36.217Z,19.60
2022-10-08T08:59:06.461Z,19.90
2022-10-08T09:02:35.693Z,20.40
2022-10-08T09:06:09.783Z,20.90
2022-10-08T09:09:40.174Z,21.40
2022-10-08T09:13:05.267Z,21.80
2022-10-08T09:16:29.410Z,22.10
2022-10-08T09:19:52.957Z,22.40
2022-10-08T09:23:19.512Z,22.80
2022-10-08T09:26:43.718Z,23.20
2022-10-08T09:30:34.190Z,23.60
2022-10-08T09:34:05.213Z,24.10
2022-10-08T09:37:28.796Z,24.50
2022-10-08T09:41:07.684Z,24.70
2022-10-08T09:44:41.958Z,24.70
2022-10-08T09:48:32.340Z,24.60
2022-10-08T09:52:00.167Z,24.70
2022-10-08T09:55:31.906Z,25.10
2022-10-08T09:58:59.632Z,25.40
2022-10-08T10:02:32.198Z,25.50
2022-10-08T10:06:20.377Z,25.60
2022-10-08T10:09:55.398Z,25.60
2022-10-08T10:13:24.440Z,25.50
2022-10-08T10:16:59.383Z,25.40
2022-10-08T10:20:30.744Z,25.50
2022-10-08T10:24:28.361Z,25.80
2022-10-08T10:27:59.507Z,26.10
2022-10-08T10:31:29.300Z,26.10
2022-10-08T10:35:06.018Z,25.90
2022-10-08T10:38:32.210Z,25.50
2022-10-08T10:42:09.225Z,25.20
2022-10-08T10:45:36.013Z,25.00
2022-10-08T10:49:00.439Z,25.00
2022-10-08T10:52:46.736Z,25.00
2022-10-08T10:56:16.972Z,24.70
2022-10-08T10:59:52.047Z,25.10
2022-10-08T11:03:24.306Z,25.20
2022-10-08T11:07:05.393Z,25.00
2022-10-08T11:10:57.257Z,24.70
2022-10-08T11:14:44.564Z,24.40
2022-10-08T11:18:32.982Z,24.40
2022-10-08T11:22:10.150Z,24.70
2022-10-08T11:26:03.031Z,25.10
2022-10-08T11:29:38.689Z,25.50
2022-10-08T11:33:02.693Z,25.70
2022-10-08T11:36:42.405Z,25.70
2022-10-08T11:40:21.770Z,25.40
2022-10-08T11:43:53.707Z,25.40
2022-10-08T11:47:49.559Z,25.60
2022-10-08T11:51:37.599Z,25.70
2022-10-08T11:55:02.863Z,25.50
2022-10-08T11:58:31.311Z,25.30
2022-10-08T12:01:58.353Z,25.10
2022-10-08T12:05:44.502Z,24.90
2022-10-08T12:09:24.657Z,24.80
2022-10-08T12:13:24.949Z,24.60
2022-10-08T12:17:11.505Z,24.40
2022-10-08T12:20:37.950Z,24.10
2022-10-08T12:24:01.568Z,23.90
2022-10-08T12:27:37.397Z,23.70
2022-10-08T12:31:03.181Z,23.60
2022-10-08T12:34:26.920Z,23.40
2022-10-08T12:38:17.235Z,23.30
2022-10-08T12:41:56.879Z,23.20
2022-10-08T12:45:30.071Z,23.10
2022-10-08T12:49:01.021Z,23.00
2022-10-08T12:52:25.713Z,22.80
2022-10-08T12:55:56.035Z,22.60
2022-10-08T12:59:22.112Z,22.40
2022-10-08T13:03:00.673Z,22.30
2022-10-08T13:06:33.158Z,22.20
2022-10-08T13:10:00.463Z,22.10
2022-10-08T13:13:44.827Z,21.90
2022-10-08T13:17:30.678Z,21.90
2022-10-08T13:21:01.268Z,21.70
2022-10-08T13:24:43.470Z,21.50
2022-10-08T13:28:15.623Z,21.70
2022-10-08T13:31:39.134Z,21.50
2022-10-08T13:35:05.928Z,21.40
2022-10-08T13:38:34.863Z,21.40
2022-10-08T13:42:01.803Z,21.40
2022-10-08T13:45:28.503Z,21.50
2022-10-08T13:48:51.975Z,21.40
2022-10-08T13:52:18.107Z,21.50
2022-10-08T13:55:46.282Z,21.50
2022-10-08T13:59:11.564Z,21.50
2022-10-08T14:02:35.132Z,21.60
2022-10-08T14:05:59.319Z,21.60
2022-10-08T14:09:26.510Z,21.70
2022-10-08T14:12:51.314Z,21.80
2022-10-08T14:16:15.134Z,21.90
2022-10-08T14:19:38.588Z,21.90
2022-10-08T14:23:02.425Z,21.80
2022-10-08T14:26:25.896Z,21.90
2022-10-08T14:29:50.808Z,21.70
2022-10-08T14:33:14.341Z,21.50
2022-10-08T14:36:41.612Z,21.40
2022-10-08T14:40:08.380Z,21.30
2022-10-08T14:43:32.013Z,21.20
2022-10-08T14:46:56.970Z,21.10
2022-10-08T14:50:20.578Z,21.00
2022-10-08T14:53:44.107Z,21.00
2022-10-08T14:57:07.506Z,20.80
2022-10-08T15:00:30.929Z,20.80
2022-10-08T15:03:55.826Z,20.80
2022-10-08T15:07:19.286Z,20.70
2022-10-08T15:10:42.933Z,20.70
2022-10-08T15:14:06.913Z,20.60
2022-10-08T15:17:30.353Z,20.50
2022-10-08T15:21:00.442Z,20.40
2022-10-08T15:24:24.049Z,20.40
2022-10-08T15:27:47.844Z,20.30
2022-10-08T15:31:15.021Z,20.30
2022-10-08T15:34:38.604Z,20.10
2022-10-08T15:38:03.390Z,20.00
2022-10-08T15:41:28.713Z,20.00
2022-10-08T15:44:52.074Z,19.90
2022-10-08T15:48:16.716Z,19.90
2022-10-08T15:51:40.295Z,19.80
2022-10-08T15:55:05.734Z,19.70
2022-10-08T15:58:49.956Z,19.60
2022-10-08T16:02:17.591Z,19.50
2022-10-08T16:05:41.681Z,19.50
2022-10-08T16:09:05.927Z,19.50
2022-10-08T16:12:30.670Z,19.50
2022-10-08T16:15:54.038Z,19.50
2022-10-08T16:19:20.560Z,19.50
2022-10-08T16:22:44.026Z,19.40
2022-10-08T16:26:09.669Z,19.40
2022-10-08T16:29:34.431Z,19.30
2022-10-08T16:32:57.764Z,19.30
2022-10-08T16:36:21.183Z,19.30
2022-10-08T16:39:45.078Z,19.20
2022-10-08T16:43:08.636Z,19.30
2022-10-08T16:46:37.819Z,19.10
2022-10-08T16:50:01.900Z,19.10
2022-10-08T16:53:25.656Z,19.00
2022-10-08T16:56:49.620Z,18.90
2022-10-08T17:00:14.840Z,19.10
2022-10-08T17:03:39.767Z,18.90
2022-10-08T17:07:03.405Z,18.80
2022-10-08T17:10:30.091Z,18.80
2022-10-08T17:13:56.555Z,18.80
2022-10-08T17:17:20.074Z,18.70
2022-10-08T17:20:45.230Z,18.70
2022-10-08T17:24:11.665Z,18.60
2022-10-08T17:27:35.164Z,18.50
2022-10-08T17:31:01.072Z,18.50
2022-10-08T17:34:24.837Z,18.40
2022-10-08T17:37:49.914Z,18.20
2022-10-08T17:41:16.214Z,18.10
2022-10-08T17:44:40.204Z,18.10
2022-10-08T17:48:04.137Z,18.00
2022-10-08T17:51:29.814Z,17.90
2022-10-08T17:54:54.711Z,17.80
2022-10-08T17:58:18.162Z,17.70
2022-10-08T18:01:45.080Z,17.60
2022-10-08T18:05:09.983Z,17.60
2022-10-08T18:08:34.083Z,17.50
2022-10-08T18:11:58.945Z,17.40
2022-10-08T18:15:23.277Z,17.40
2022-10-08T18:18:48.371Z,17.30
2022-10-08T18:22:12.123Z,17.20
2022-10-08T18:25:36.592Z,17.10
2022-10-08T18:29:05.231Z,17.00
2022-10-08T18:32:28.779Z,17.00
2022-10-08T18:35:52.457Z,16.90
2022-10-08T18:39:18.811Z,16.80
2022-10-08T18:42:42.950Z,16.80
2022-10-08T18:46:08.088Z,16.70
2022-10-08T18:49:32.968Z,16.70
2022-10-08T18:52:56.416Z,16.70
2022-10-08T18:56:23.146Z,16.60
2022-10-08T18:59:46.875Z,16.60
2022-10-08T19:03:11.945Z,16.50
2022-10-08T19:06:39.048Z,16.50
2022-10-08T19:10:02.692Z,16.50
2022-10-08T19:13:26.270Z,16.40
2022-10-08T19:16:51.100Z,16.40
2022-10-08T19:20:16.242Z,16.40
2022-10-08T19:23:40.711Z,16.30
2022-10-08T19:27:04.251Z,16.30
2022-10-08T19:30:32.887Z,16.30
2022-10-08T19:33:59.023Z,16.20
2022-10-08T19:37:23.887Z,16.20
2022-10-08T19:40:47.498Z,16.20
2022-10-08T19:44:11.820Z,16.20
2022-10-08T19:47:36.282Z,16.20
2022-10-08T19:51:05.641Z,16.20
2022-10-08T19:54:30.772Z,16.10
2022-10-08T19:57:54.443Z,16.10
2022-10-08T20:01:21.915Z,17.60
2022-10-08T20:04:46.739Z,16.00
2022-10-08T20:08:10.307Z,16.00
2022-10-08T20:11:35.751Z,16.00
2022-10-08T20:14:59.656Z,15.90
2022-10-08T20:18:24.686Z,15.90
2022-10-08T20:21:51.463Z,15.80
2022-10-08T20:25:19.028Z,15.80
2022-10-08T20:28:46.184Z,15.80
2022-10-08T20:32:11.788Z,15.90
2022-10-08T20:35:37.491Z,15.80
2022-10-08T20:39:01.255Z,15.80
2022-10-08T20:42:26.912Z,15.80
2022-10-08T20:45:51.747Z,15.80
2022-10-08T20:49:15.950Z,15.80
2022-10-08T20:52:39.612Z,15.80
2022-10-08T20:56:05.303Z,15.80
2022-10-08T20:59:28.998Z,15.80
2022-10-08T21:02:53.913Z,15.80
2022-10-08T21:06:20.163Z,15.80
2022-10-08T21:09:44.455Z,15.80
2022-10-08T21:13:08.207Z,15.80
2022-10-08T21:16:35.661Z,15.80
2022-10-08T21:20:00.656Z,15.80
2022-10-08T21:23:25.207Z,15.70
2022-10-08T21:26:51.570Z,15.70
2022-10-08T21:30:15.532Z,15.60
2022-10-08T21:33:43.698Z,15.60
2022-10-08T21:37:13.577Z,15.50
2022-10-08T21:40:37.731Z,15.40
2022-10-08T21:44:04.265Z,15.30
2022-10-08T21:47:28.732Z,15.20
2022-10-08T21:51:00.743Z,15.20
2022-10-08T21:54:25.436Z,15.10
2022-10-08T21:57:48.826Z,15.00
2022-10-08T22:01:22.830Z,15.00
2022-10-08T22:04:46.673Z,14.90
2022-10-08T22:08:10.169Z,14.90
2022-10-08T22:11:35.425Z,14.80
2022-10-08T22:14:58.896Z,14.70
2022-10-08T22:18:23.317Z,14.70
2022-10-08T22:21:49.045Z,14.60
2022-10-08T22:25:12.762Z,14.60
2022-10-08T22:28:38.473Z,14.50
2022-10-08T22:32:01.999Z,14.40
2022-10-08T22:35:25.486Z,14.40
2022-10-08T22:38:50.464Z,14.30
2022-10-08T22:42:13.857Z,14.30
2022-10-08T22:45:41.423Z,14.20
2022-10-08T22:49:08.729Z,14.20
2022-10-08T22:52:32.121Z,14.20
2022-10-08T22:55:55.649Z,14.10
2022-10-08T22:59:19.012Z,14.10
2022-10-08T23:02:43.722Z,14.00
2022-10-08T23:06:11.854Z,14.00
2022-10-08T23:09:35.267Z,14.00
2022-10-08T23:12:58.745Z,13.90
2022-10-08T23:16:22.505Z,13.90
2022-10-08T23:19:47.360Z,13.80
2022-10-08T23:23:10.928Z,13.80
2022-10-08T23:26:36.207Z,13.70
2022-10-08T23:30:01.612Z,13.70
2022-10-08T23:33:25.332Z,13.70
2022-10-08T23:36:50.563Z,13.60
2022-10-08T23:40:15.513Z,13.60
2022-10-08T23:43:43.423Z,13.50
2022-10-08T23:47:06.928Z,13.50
2022-10-08T23:50:30.394Z,13.50
2022-10-08T23:53:56.383Z,13.40
2022-10-08T23:57:20.929Z,13.40
